CES735 ZSPD-YSSY
Flight info
| Callsign | CES735 |
|---|---|
| Flight time | N/A |
| Altitude | 37000 |
| Route | LAM82D LAMEN A593 SADLI Y590 BEDAR Y591 ISPIT Z41 AGIKA G339 SABGU A339 KEITH R204 CS Y177 AKROM Y153 KANKO DCT SULMI DCT OVNOM H652 BOREE |
| Aircraft | A346/H-SDE2E3FGHIJ3J4J5M1RWXY/LB1D1 |
Departure
| Time | 2026-05-05 23:49 |
|---|---|
| Airport | Shanghai Pudong International Airport (ZSPD) |
Arrival
| Time | N/A |
|---|---|
| Airport | Sydney Kingsford Smith International Airport (YSSY) |
| Time | Latitude | Longitude | Altitude | Speed | Heading |
|---|---|---|---|---|---|
| 2026-05-05 23:19 | 31.15066 | 121.79665 | 30 ft | 0 kts | 72° |
| 2026-05-05 23:36 | 31.15066 | 121.79663 | 31 ft | 2 kts | 72° |
| 2026-05-05 23:36 | 31.15058 | 121.79634 | 29 ft | 4 kts | 72° |
| 2026-05-05 23:36 | 31.15051 | 121.79610 | 29 ft | 4 kts | 70° |
| 2026-05-05 23:37 | 31.15040 | 121.79586 | 28 ft | 4 kts | 44° |
| 2026-05-05 23:37 | 31.15024 | 121.79575 | 28 ft | 4 kts | 7° |
| 2026-05-05 23:37 | 31.15004 | 121.79578 | 29 ft | 3 kts | 342° |
| 2026-05-05 23:37 | 31.14979 | 121.79587 | 30 ft | 2 kts | 342° |
| 2026-05-05 23:38 | 31.14978 | 121.79588 | 30 ft | 0 kts | 342° |
| 2026-05-05 23:41 | 31.14980 | 121.79587 | 31 ft | 1 kts | 342° |
| 2026-05-05 23:41 | 31.14997 | 121.79580 | 31 ft | 4 kts | 342° |
| 2026-05-05 23:41 | 31.15033 | 121.79567 | 31 ft | 7 kts | 342° |
| 2026-05-05 23:42 | 31.15086 | 121.79547 | 31 ft | 9 kts | 342° |
| 2026-05-05 23:42 | 31.15155 | 121.79521 | 31 ft | 12 kts | 342° |
| 2026-05-05 23:42 | 31.15236 | 121.79491 | 31 ft | 10 kts | 342° |
| 2026-05-05 23:42 | 31.15289 | 121.79454 | 31 ft | 9 kts | 297° |
| 2026-05-05 23:43 | 31.15278 | 121.79371 | 31 ft | 12 kts | 252° |
| 2026-05-05 23:43 | 31.15257 | 121.79290 | 31 ft | 8 kts | 262° |
| 2026-05-05 23:43 | 31.15288 | 121.79244 | 31 ft | 9 kts | 336° |
| 2026-05-05 23:43 | 31.15358 | 121.79217 | 31 ft | 12 kts | 342° |
| 2026-05-05 23:44 | 31.15441 | 121.79186 | 31 ft | 14 kts | 342° |
| 2026-05-05 23:44 | 31.15536 | 121.79150 | 31 ft | 15 kts | 342° |
| 2026-05-05 23:44 | 31.15639 | 121.79111 | 31 ft | 16 kts | 342° |
| 2026-05-05 23:44 | 31.15749 | 121.79070 | 31 ft | 17 kts | 342° |
| 2026-05-05 23:45 | 31.15865 | 121.79026 | 31 ft | 19 kts | 342° |
| 2026-05-05 23:45 | 31.15995 | 121.78976 | 31 ft | 21 kts | 342° |
| 2026-05-05 23:45 | 31.16100 | 121.78937 | 31 ft | 7 kts | 342° |
| 2026-05-05 23:45 | 31.16154 | 121.78912 | 31 ft | 9 kts | 322° |
| 2026-05-05 23:46 | 31.16168 | 121.78835 | 31 ft | 11 kts | 260° |
| 2026-05-05 23:46 | 31.16155 | 121.78778 | 31 ft | 4 kts | 253° |
| 2026-05-05 23:46 | 31.16145 | 121.78739 | 31 ft | 6 kts | 251° |
| 2026-05-05 23:46 | 31.16128 | 121.78681 | 31 ft | 9 kts | 250° |
| 2026-05-05 23:47 | 31.16087 | 121.78619 | 31 ft | 10 kts | 197° |
| 2026-05-05 23:47 | 31.16031 | 121.78634 | 30 ft | 0 kts | 162° |
| 2026-05-05 23:47 | 31.16028 | 121.78635 | 30 ft | 1 kts | 162° |
| 2026-05-05 23:47 | 31.16009 | 121.78642 | 30 ft | 4 kts | 162° |
| 2026-05-05 23:48 | 31.15904 | 121.78682 | 30 ft | 41 kts | 162° |
| 2026-05-05 23:48 | 31.15438 | 121.78858 | 30 ft | 97 kts | 162° |
| 2026-05-05 23:48 | 31.14643 | 121.79159 | 33 ft | 142 kts | 162° |
| 2026-05-05 23:48 | 31.13587 | 121.79553 | 100 ft | 170 kts | 162° |
| 2026-05-05 23:49 | 31.12466 | 121.79967 | 530 ft | 169 kts | 162° |
| 2026-05-05 23:49 | 31.11402 | 121.80339 | 1242 ft | 155 kts | 165° |
| 2026-05-05 23:49 | 31.10358 | 121.80684 | 1752 ft | 157 kts | 165° |
| 2026-05-05 23:49 | 31.09290 | 121.81034 | 2161 ft | 161 kts | 165° |
| 2026-05-05 23:50 | 31.08170 | 121.81402 | 2422 ft | 173 kts | 165° |
| 2026-05-05 23:50 | 31.06974 | 121.81802 | 2678 ft | 185 kts | 165° |
| 2026-05-05 23:50 | 31.05689 | 121.82229 | 2961 ft | 199 kts | 164° |
| 2026-05-05 23:50 | 31.04309 | 121.82688 | 3262 ft | 213 kts | 164° |
| 2026-05-05 23:51 | 31.02830 | 121.83183 | 3518 ft | 230 kts | 163° |
| 2026-05-05 23:51 | 31.01234 | 121.83720 | 3836 ft | 247 kts | 163° |
| 2026-05-05 23:51 | 30.99537 | 121.84315 | 4270 ft | 260 kts | 160° |
| 2026-05-05 23:51 | 30.97827 | 121.85089 | 4890 ft | 267 kts | 157° |
| 2026-05-05 23:52 | 30.96100 | 121.85912 | 5596 ft | 269 kts | 156° |
| 2026-05-05 23:52 | 30.94357 | 121.86744 | 6348 ft | 272 kts | 156° |
| 2026-05-05 23:52 | 30.92584 | 121.87527 | 7104 ft | 274 kts | 161° |
| 2026-05-05 23:52 | 30.90756 | 121.88218 | 7819 ft | 278 kts | 162° |
| 2026-05-05 23:53 | 30.88898 | 121.88905 | 8483 ft | 283 kts | 163° |
| 2026-05-05 23:53 | 30.86998 | 121.89604 | 9145 ft | 289 kts | 164° |
| 2026-05-05 23:53 | 30.85066 | 121.90312 | 9837 ft | 294 kts | 165° |
| 2026-05-05 23:53 | 30.83168 | 121.91246 | 10429 ft | 302 kts | 146° |
| 2026-05-05 23:54 | 30.81712 | 121.93021 | 11012 ft | 309 kts | 120° |
| 2026-05-05 23:54 | 30.81021 | 121.95402 | 11503 ft | 318 kts | 94° |
| 2026-05-05 23:54 | 30.81290 | 121.97990 | 11814 ft | 331 kts | 70° |
| 2026-05-05 23:54 | 30.82059 | 122.00576 | 12141 ft | 346 kts | 70° |
| 2026-05-05 23:55 | 30.82859 | 122.03292 | 12439 ft | 362 kts | 70° |
| 2026-05-05 23:55 | 30.83679 | 122.06139 | 12741 ft | 378 kts | 70° |
| 2026-05-05 23:55 | 30.84518 | 122.09110 | 13032 ft | 394 kts | 71° |
| 2026-05-05 23:55 | 30.85375 | 122.12188 | 13481 ft | 403 kts | 70° |
| 2026-05-05 23:56 | 30.86240 | 122.15305 | 14134 ft | 405 kts | 70° |
| 2026-05-05 23:56 | 30.87109 | 122.18439 | 14785 ft | 407 kts | 70° |
| 2026-05-05 23:56 | 30.87981 | 122.21590 | 15397 ft | 410 kts | 70° |
| 2026-05-05 23:56 | 30.88868 | 122.24764 | 15976 ft | 413 kts | 68° |
| 2026-05-05 23:57 | 30.90005 | 122.27840 | 16577 ft | 414 kts | 60° |
| 2026-05-05 23:57 | 30.91500 | 122.30708 | 17193 ft | 414 kts | 52° |
| 2026-05-05 23:57 | 30.93291 | 122.33341 | 17791 ft | 415 kts | 47° |
| 2026-05-05 23:57 | 30.95176 | 122.35904 | 18388 ft | 418 kts | 46° |
| 2026-05-05 23:58 | 30.97088 | 122.38479 | 18881 ft | 421 kts | 47° |
| 2026-05-05 23:58 | 30.98751 | 122.41323 | 19343 ft | 430 kts | 60° |
| 2026-05-05 23:58 | 30.99500 | 122.43472 | 19684 ft | 434 kts | 70° |
| 2026-05-05 23:58 | 31.00082 | 122.48164 | 20400 ft | 443 kts | 86° |
| 2026-05-05 23:59 | 31.00097 | 122.50550 | 20758 ft | 445 kts | 87° |
| 2026-05-05 23:59 | 31.00081 | 122.54174 | 21258 ft | 448 kts | 88° |
| 2026-05-05 23:59 | 31.00059 | 122.57829 | 21743 ft | 452 kts | 88° |
| 2026-05-05 23:59 | 31.00041 | 122.62710 | 22419 ft | 456 kts | 87° |
| 2026-05-06 00:00 | 31.00036 | 122.65218 | 22744 ft | 458 kts | 87° |
| 2026-05-06 00:00 | 31.00031 | 122.70171 | 23377 ft | 463 kts | 87° |
| 2026-05-06 00:00 | 31.00030 | 122.72714 | 23692 ft | 465 kts | 87° |
| 2026-05-06 00:00 | 31.00029 | 122.76500 | 24092 ft | 468 kts | 87° |
| 2026-05-06 00:01 | 31.00026 | 122.80308 | 24500 ft | 471 kts | 86° |
| 2026-05-06 00:01 | 31.00023 | 122.84136 | 24917 ft | 473 kts | 86° |
| 2026-05-06 00:01 | 31.00019 | 122.87942 | 25318 ft | 476 kts | 86° |
| 2026-05-06 00:01 | 31.00014 | 122.91806 | 25739 ft | 478 kts | 86° |
| 2026-05-06 00:02 | 31.00082 | 122.95681 | 26139 ft | 477 kts | 81° |
| 2026-05-06 00:02 | 31.00716 | 122.99462 | 26510 ft | 473 kts | 69° |
| 2026-05-06 00:02 | 31.01969 | 123.02985 | 26916 ft | 468 kts | 58° |
| 2026-05-06 00:02 | 31.03723 | 123.06168 | 27323 ft | 466 kts | 51° |
| 2026-05-06 00:03 | 31.05616 | 123.09245 | 27722 ft | 468 kts | 50° |
| 2026-05-06 00:03 | 31.07533 | 123.12326 | 28129 ft | 469 kts | 50° |
| 2026-05-06 00:03 | 31.09444 | 123.15409 | 28691 ft | 467 kts | 50° |
| 2026-05-06 00:03 | 31.11340 | 123.18479 | 29313 ft | 465 kts | 50° |
| 2026-05-06 00:04 | 31.13221 | 123.21539 | 29909 ft | 462 kts | 50° |
| 2026-05-06 00:04 | 31.15089 | 123.24587 | 30466 ft | 460 kts | 50° |
| 2026-05-06 00:04 | 31.16942 | 123.27617 | 30937 ft | 457 kts | 50° |
| 2026-05-06 00:04 | 31.18785 | 123.30636 | 31446 ft | 454 kts | 50° |
| 2026-05-06 00:05 | 31.22434 | 123.36619 | 32457 ft | 449 kts | 50° |
| 2026-05-06 00:05 | 31.24240 | 123.39585 | 32949 ft | 446 kts | 50° |
| 2026-05-06 00:05 | 31.26030 | 123.42532 | 33472 ft | 443 kts | 49° |
| 2026-05-06 00:06 | 31.27808 | 123.45457 | 34024 ft | 438 kts | 49° |
| 2026-05-06 00:06 | 31.29568 | 123.48351 | 34450 ft | 435 kts | 49° |
| 2026-05-06 00:06 | 31.31324 | 123.51237 | 34730 ft | 437 kts | 49° |
| 2026-05-06 00:06 | 31.33092 | 123.54144 | 34904 ft | 440 kts | 50° |
| 2026-05-06 00:07 | 31.34880 | 123.57071 | 35076 ft | 442 kts | 49° |
| 2026-05-06 00:07 | 31.36676 | 123.60000 | 35284 ft | 444 kts | 50° |
| 2026-05-06 00:07 | 31.38485 | 123.62952 | 35473 ft | 446 kts | 50° |
| 2026-05-06 00:07 | 31.40299 | 123.65917 | 35654 ft | 449 kts | 50° |
| 2026-05-06 00:08 | 31.42122 | 123.68907 | 35857 ft | 451 kts | 50° |
| 2026-05-06 00:08 | 31.43953 | 123.71898 | 35984 ft | 454 kts | 50° |
| 2026-05-06 00:08 | 31.45799 | 123.74927 | 36084 ft | 458 kts | 50° |
| 2026-05-06 00:08 | 31.47657 | 123.77979 | 36189 ft | 462 kts | 50° |
| 2026-05-06 00:09 | 31.49526 | 123.81056 | 36337 ft | 464 kts | 50° |
| 2026-05-06 00:09 | 31.51403 | 123.84146 | 36488 ft | 466 kts | 51° |
| 2026-05-06 00:09 | 31.53286 | 123.87247 | 36656 ft | 468 kts | 51° |
| 2026-05-06 00:09 | 31.55147 | 123.90327 | 36791 ft | 470 kts | 52° |
| 2026-05-06 00:10 | 31.56945 | 123.93560 | 36926 ft | 474 kts | 55° |
| 2026-05-06 00:10 | 31.58598 | 123.96919 | 37066 ft | 478 kts | 59° |
| 2026-05-06 00:10 | 31.60109 | 124.00418 | 37105 ft | 483 kts | 62° |
| 2026-05-06 00:11 | 31.62639 | 124.07810 | 37111 ft | 491 kts | 69° |
| 2026-05-06 00:11 | 31.64514 | 124.15539 | 37105 ft | 492 kts | 73° |
| 2026-05-06 00:12 | 31.66232 | 124.23335 | 37107 ft | 493 kts | 73° |
| 2026-05-06 00:12 | 31.67962 | 124.31172 | 37116 ft | 496 kts | 73° |
| 2026-05-06 00:13 | 31.69689 | 124.39005 | 37113 ft | 494 kts | 73° |
| 2026-05-06 00:13 | 31.71416 | 124.46832 | 37114 ft | 494 kts | 73° |
| 2026-05-06 00:14 | 31.73152 | 124.54685 | 37112 ft | 498 kts | 74° |
| 2026-05-06 00:14 | 31.74881 | 124.62579 | 37113 ft | 499 kts | 74° |
| 2026-05-06 00:15 | 31.76608 | 124.70489 | 37114 ft | 499 kts | 74° |
| 2026-05-06 00:15 | 31.78333 | 124.78395 | 37119 ft | 500 kts | 74° |
| 2026-05-06 00:16 | 31.80057 | 124.86341 | 37123 ft | 502 kts | 74° |
| 2026-05-06 00:16 | 31.81441 | 124.94403 | 37117 ft | 503 kts | 82° |
| 2026-05-06 00:17 | 31.81855 | 125.02625 | 37112 ft | 505 kts | 91° |
| 2026-05-06 00:17 | 31.81251 | 125.10888 | 37116 ft | 507 kts | 100° |
| 2026-05-06 00:18 | 31.79943 | 125.18989 | 37119 ft | 507 kts | 102° |
| 2026-05-06 00:18 | 31.78577 | 125.27130 | 37115 ft | 508 kts | 103° |
| 2026-05-06 00:19 | 31.77223 | 125.35304 | 37117 ft | 509 kts | 103° |
| 2026-05-06 00:19 | 31.75862 | 125.43493 | 37120 ft | 510 kts | 103° |
| 2026-05-06 00:20 | 31.74503 | 125.51672 | 37124 ft | 509 kts | 103° |
| 2026-05-06 00:20 | 31.73417 | 125.59932 | 37121 ft | 512 kts | 96° |
| 2026-05-06 00:21 | 31.73323 | 125.68321 | 37122 ft | 514 kts | 87° |
| 2026-05-06 00:21 | 31.74307 | 125.76664 | 37114 ft | 516 kts | 78° |
| 2026-05-06 00:22 | 31.76111 | 125.84886 | 37121 ft | 521 kts | 76° |
| 2026-05-06 00:22 | 31.77989 | 125.93125 | 37124 ft | 521 kts | 76° |
| 2026-05-06 00:23 | 31.79808 | 126.01382 | 37129 ft | 521 kts | 77° |
| 2026-05-06 00:23 | 31.81598 | 126.09625 | 37136 ft | 518 kts | 76° |
| 2026-05-06 00:24 | 31.83388 | 126.17836 | 37129 ft | 517 kts | 76° |
| 2026-05-06 00:24 | 31.85170 | 126.26038 | 37114 ft | 518 kts | 77° |
| 2026-05-06 00:25 | 31.86964 | 126.34318 | 37126 ft | 523 kts | 77° |
| 2026-05-06 00:25 | 31.88739 | 126.42587 | 37129 ft | 524 kts | 77° |
| 2026-05-06 00:26 | 31.90521 | 126.50884 | 37118 ft | 521 kts | 76° |
| 2026-05-06 00:26 | 31.92372 | 126.59205 | 37128 ft | 527 kts | 77° |
| 2026-05-06 00:27 | 31.94221 | 126.67573 | 37128 ft | 528 kts | 77° |
| 2026-05-06 00:27 | 31.96062 | 126.75948 | 37119 ft | 528 kts | 77° |
| 2026-05-06 00:28 | 31.97907 | 126.84370 | 37157 ft | 531 kts | 77° |
| 2026-05-06 00:28 | 31.99736 | 126.92778 | 37139 ft | 528 kts | 77° |
| 2026-05-06 00:29 | 32.01562 | 127.01165 | 37118 ft | 529 kts | 78° |
| 2026-05-06 00:29 | 32.03466 | 127.09600 | 37134 ft | 533 kts | 75° |
| 2026-05-06 00:30 | 32.06044 | 127.17824 | 37131 ft | 535 kts | 68° |
| 2026-05-06 00:30 | 32.08887 | 127.25928 | 37110 ft | 533 kts | 76° |
| 2026-05-06 00:31 | 32.09848 | 127.34528 | 37129 ft | 526 kts | 97° |
| 2026-05-06 00:31 | 32.08539 | 127.42889 | 37135 ft | 512 kts | 116° |
| 2026-05-06 00:32 | 32.05405 | 127.50305 | 37122 ft | 502 kts | 128° |
| 2026-05-06 00:32 | 32.01832 | 127.57366 | 37133 ft | 501 kts | 128° |
| 2026-05-06 00:33 | 31.98267 | 127.64437 | 37132 ft | 501 kts | 128° |
| 2026-05-06 00:33 | 31.94728 | 127.71524 | 37134 ft | 501 kts | 128° |
| 2026-05-06 00:34 | 31.91202 | 127.78619 | 37129 ft | 501 kts | 129° |
| 2026-05-06 00:34 | 31.87697 | 127.85644 | 37133 ft | 501 kts | 129° |
| 2026-05-06 00:35 | 31.84162 | 127.92719 | 37131 ft | 501 kts | 129° |
| 2026-05-06 00:35 | 31.80636 | 127.99783 | 37124 ft | 500 kts | 129° |
| 2026-05-06 00:36 | 31.77109 | 128.06821 | 37116 ft | 499 kts | 129° |
| 2026-05-06 00:36 | 31.73586 | 128.13839 | 37122 ft | 497 kts | 130° |
| 2026-05-06 00:37 | 31.70065 | 128.20839 | 37103 ft | 497 kts | 130° |
| 2026-05-06 00:37 | 31.66551 | 128.27820 | 37115 ft | 495 kts | 130° |
| 2026-05-06 00:38 | 31.63034 | 128.34780 | 37120 ft | 495 kts | 130° |
| 2026-05-06 00:38 | 31.59518 | 128.41729 | 37116 ft | 495 kts | 130° |
| 2026-05-06 00:39 | 31.55997 | 128.48679 | 37122 ft | 495 kts | 130° |
| 2026-05-06 00:39 | 31.52475 | 128.55618 | 37121 ft | 495 kts | 130° |
| 2026-05-06 00:40 | 31.48973 | 128.62508 | 37119 ft | 495 kts | 130° |
| 2026-05-06 00:40 | 31.45443 | 128.69443 | 37110 ft | 495 kts | 131° |
| 2026-05-06 00:41 | 31.41910 | 128.76365 | 37121 ft | 494 kts | 131° |
| 2026-05-06 00:41 | 31.38376 | 128.83277 | 37122 ft | 494 kts | 131° |
| 2026-05-06 00:42 | 31.34837 | 128.90188 | 37093 ft | 495 kts | 131° |
| 2026-05-06 00:42 | 31.31288 | 128.97105 | 37108 ft | 496 kts | 131° |
| 2026-05-06 00:43 | 31.27734 | 129.04019 | 37113 ft | 496 kts | 131° |
| 2026-05-06 00:43 | 31.24177 | 129.10929 | 37114 ft | 496 kts | 131° |
| 2026-05-06 00:44 | 31.20615 | 129.17838 | 37105 ft | 496 kts | 131° |
| 2026-05-06 00:44 | 31.17044 | 129.24748 | 37113 ft | 496 kts | 131° |
| 2026-05-06 00:45 | 31.13469 | 129.31654 | 37105 ft | 496 kts | 131° |
| 2026-05-06 00:45 | 31.09894 | 129.38552 | 37092 ft | 496 kts | 131° |
| 2026-05-06 00:46 | 31.06317 | 129.45438 | 37104 ft | 495 kts | 131° |
| 2026-05-06 00:46 | 31.02739 | 129.52310 | 37089 ft | 495 kts | 131° |
| 2026-05-06 00:47 | 30.99159 | 129.59179 | 37078 ft | 495 kts | 132° |
| 2026-05-06 00:47 | 30.95577 | 129.66038 | 37094 ft | 495 kts | 132° |
| 2026-05-06 00:48 | 30.92015 | 129.72846 | 37102 ft | 495 kts | 132° |
| 2026-05-06 00:48 | 30.88427 | 129.79693 | 37095 ft | 495 kts | 132° |
| 2026-05-06 00:49 | 30.84830 | 129.86542 | 37097 ft | 496 kts | 132° |
| 2026-05-06 00:49 | 30.81226 | 129.93396 | 37094 ft | 496 kts | 132° |
| 2026-05-06 00:50 | 30.77617 | 130.00246 | 37097 ft | 496 kts | 132° |
| 2026-05-06 00:50 | 30.74001 | 130.07100 | 37092 ft | 498 kts | 132° |
| 2026-05-06 00:51 | 30.70367 | 130.13971 | 37097 ft | 499 kts | 132° |
| 2026-05-06 00:51 | 30.66724 | 130.20850 | 37102 ft | 499 kts | 132° |
| 2026-05-06 00:52 | 30.63697 | 130.26558 | 37086 ft | 499 kts | 132° |
| 2026-05-06 00:52 | 30.60032 | 130.33450 | 37103 ft | 502 kts | 132° |
| 2026-05-06 00:53 | 30.56355 | 130.40361 | 37109 ft | 502 kts | 132° |
| 2026-05-06 00:53 | 30.52676 | 130.47264 | 37107 ft | 502 kts | 132° |
| 2026-05-06 00:54 | 30.48992 | 130.54161 | 37106 ft | 503 kts | 132° |
| 2026-05-06 00:54 | 30.45304 | 130.61056 | 37110 ft | 502 kts | 132° |
| 2026-05-06 00:55 | 30.41612 | 130.67945 | 37113 ft | 502 kts | 132° |
| 2026-05-06 00:55 | 30.37919 | 130.74824 | 37113 ft | 502 kts | 132° |
| 2026-05-06 00:56 | 30.34224 | 130.81696 | 37111 ft | 502 kts | 132° |
| 2026-05-06 00:56 | 30.30524 | 130.88562 | 37098 ft | 501 kts | 132° |
| 2026-05-06 00:57 | 30.26846 | 130.95378 | 37087 ft | 496 kts | 132° |
| 2026-05-06 00:57 | 30.23193 | 131.02140 | 37100 ft | 494 kts | 132° |
| 2026-05-06 00:58 | 30.19540 | 131.08884 | 37100 ft | 494 kts | 132° |
| 2026-05-06 00:58 | 30.15887 | 131.15615 | 37091 ft | 493 kts | 132° |
| 2026-05-06 00:59 | 30.12246 | 131.22317 | 37092 ft | 492 kts | 132° |
| 2026-05-06 00:59 | 30.08600 | 131.29013 | 37091 ft | 491 kts | 132° |
| 2026-05-06 01:00 | 30.04915 | 131.35652 | 37071 ft | 488 kts | 135° |
| 2026-05-06 01:00 | 30.00717 | 131.41697 | 37078 ft | 477 kts | 143° |
| 2026-05-06 01:01 | 29.95957 | 131.46906 | 37082 ft | 466 kts | 151° |
| 2026-05-06 01:01 | 29.90774 | 131.51242 | 37079 ft | 456 kts | 157° |
| 2026-05-06 01:02 | 29.85432 | 131.55203 | 37075 ft | 456 kts | 157° |
| 2026-05-06 01:02 | 29.80085 | 131.59168 | 37052 ft | 458 kts | 158° |
| 2026-05-06 01:03 | 29.74764 | 131.63114 | 37071 ft | 458 kts | 158° |
| 2026-05-06 01:03 | 29.69411 | 131.67082 | 37068 ft | 458 kts | 158° |
| 2026-05-06 01:04 | 29.64056 | 131.71047 | 37066 ft | 458 kts | 158° |
| 2026-05-06 01:04 | 29.58709 | 131.75047 | 37070 ft | 460 kts | 155° |
| 2026-05-06 01:05 | 29.53489 | 131.79360 | 37043 ft | 464 kts | 155° |
| 2026-05-06 01:05 | 29.48242 | 131.83705 | 37065 ft | 465 kts | 154° |
| 2026-05-06 01:06 | 29.42569 | 131.88406 | 37072 ft | 465 kts | 154° |
| 2026-05-06 01:06 | 29.37349 | 131.92724 | 37061 ft | 465 kts | 154° |
| 2026-05-06 01:07 | 29.32097 | 131.97061 | 37067 ft | 465 kts | 154° |
| 2026-05-06 01:07 | 29.26829 | 132.01396 | 37067 ft | 468 kts | 154° |
| 2026-05-06 01:08 | 29.21523 | 132.05757 | 36990 ft | 469 kts | 154° |
| 2026-05-06 01:08 | 29.16236 | 132.10105 | 37047 ft | 467 kts | 153° |
| 2026-05-06 01:09 | 29.10961 | 132.14441 | 37080 ft | 467 kts | 153° |
| 2026-05-06 01:09 | 29.05651 | 132.18798 | 37067 ft | 467 kts | 153° |
| 2026-05-06 01:10 | 29.00371 | 132.23109 | 37054 ft | 465 kts | 152° |
| 2026-05-06 01:10 | 28.95121 | 132.27414 | 37061 ft | 465 kts | 152° |
| 2026-05-06 01:11 | 28.89861 | 132.31716 | 37038 ft | 465 kts | 151° |
| 2026-05-06 01:11 | 28.84569 | 132.36019 | 37055 ft | 468 kts | 150° |
| 2026-05-06 01:12 | 28.79268 | 132.40353 | 37056 ft | 469 kts | 150° |
| 2026-05-06 01:12 | 28.73934 | 132.44693 | 37056 ft | 473 kts | 150° |
| 2026-05-06 01:13 | 28.68569 | 132.49060 | 37057 ft | 474 kts | 150° |
| 2026-05-06 01:13 | 28.63197 | 132.53423 | 37051 ft | 474 kts | 150° |
| 2026-05-06 01:14 | 28.55138 | 132.59953 | 37053 ft | 474 kts | 150° |
| 2026-05-06 01:14 | 28.49758 | 132.64304 | 37045 ft | 475 kts | 150° |
| 2026-05-06 01:15 | 28.45269 | 132.67929 | 37056 ft | 476 kts | 150° |
| 2026-05-06 01:15 | 28.38953 | 132.73022 | 37054 ft | 476 kts | 150° |
| 2026-05-06 01:16 | 28.33547 | 132.77377 | 37055 ft | 476 kts | 150° |
| 2026-05-06 01:16 | 28.29057 | 132.80990 | 37055 ft | 476 kts | 150° |
| 2026-05-06 01:17 | 28.23637 | 132.85347 | 37043 ft | 479 kts | 150° |
| 2026-05-06 01:17 | 28.18192 | 132.89709 | 37048 ft | 479 kts | 150° |